Time;durP1;ratioP1;P1;durP2;ratioP2;P2;SDS_P1;SDS_P2;PMS_P1;PMS_P2;Temp;Humidity;BMP_temperature;BMP_pressure;BME280_temperature;BME280_humidity;BME280_pressure;Samples;Min_cycle;Max_cycle;Signal;HPM_P1;HPM_P2
2023/05/31 00:00:43;;;;;;;7.95;6.45;;;;;;;11.38;79.32;102488.84;4913038;29;20036;-75
2023/05/31 00:03:08;;;;;;;8.43;6.60;;;;;;;11.38;79.34;102491.47;4905078;29;20513;-75
2023/05/31 00:05:33;;;;;;;8.65;6.00;;;;;;;11.33;79.16;102490.50;4921354;29;20123;-75
2023/05/31 00:07:59;;;;;;;7.63;6.40;;;;;;;11.31;79.95;102501.88;4906664;29;20099;-75
2023/05/31 00:10:24;;;;;;;9.60;6.43;;;;;;;11.25;79.69;102494.81;4902908;29;20445;-75
2023/05/31 00:12:50;;;;;;;9.48;6.68;;;;;;;11.23;80.46;102489.56;4908006;29;20401;-75
2023/05/31 00:15:15;;;;;;;9.90;6.55;;;;;;;11.21;80.47;102493.88;4904448;29;20472;-75
2023/05/31 00:17:41;;;;;;;7.10;6.40;;;;;;;11.20;80.65;102499.13;4895376;29;20039;-75
2023/05/31 00:20:06;;;;;;;9.05;6.30;;;;;;;11.19;80.78;102492.09;4907777;29;20056;-76
2023/05/31 00:22:32;;;;;;;8.30;6.47;;;;;;;11.16;80.92;102489.44;4890571;29;20052;-75
2023/05/31 00:24:57;;;;;;;8.52;6.13;;;;;;;11.11;80.95;102491.16;4917471;29;20028;-75
2023/05/31 00:27:23;;;;;;;7.90;6.38;;;;;;;11.12;81.39;102491.16;4911500;29;20032;-76
2023/05/31 00:29:48;;;;;;;8.93;6.25;;;;;;;11.10;81.93;102487.63;4907893;29;20032;-75
2023/05/31 00:32:13;;;;;;;7.88;6.63;;;;;;;11.11;81.59;102488.53;4911159;29;20088;-75
2023/05/31 00:34:39;;;;;;;8.35;6.30;;;;;;;11.01;82.32;102492.75;4891908;29;20112;-75
2023/05/31 00:37:05;;;;;;;7.68;6.57;;;;;;;11.05;81.84;102489.31;4893017;29;20125;-75
2023/05/31 00:39:30;;;;;;;10.23;6.40;;;;;;;10.96;81.99;102479.59;4906059;29;20050;-75
2023/05/31 00:41:56;;;;;;;8.90;6.40;;;;;;;10.94;82.90;102486.53;4913863;29;20036;-75
2023/05/31 00:44:21;;;;;;;7.88;6.75;;;;;;;10.94;82.24;102486.53;4924485;29;20036;-75
2023/05/31 00:46:47;;;;;;;9.52;6.43;;;;;;;10.93;82.62;102484.78;4915366;29;20032;-75
2023/05/31 00:49:14;;;;;;;9.48;6.80;;;;;;;10.88;83.00;102492.59;4926702;29;20473;-75
2023/05/31 00:51:40;;;;;;;9.50;7.05;;;;;;;10.89;82.82;102494.38;4900321;29;20063;-75
2023/05/31 00:54:06;;;;;;;7.32;6.05;;;;;;;10.87;83.29;102495.19;4900292;29;20069;-75
2023/05/31 00:56:32;;;;;;;8.23;6.85;;;;;;;10.84;83.56;102496.03;4909970;29;20048;-71
2023/05/31 00:58:59;;;;;;;8.00;7.15;;;;;;;10.84;84.00;102503.03;4894015;29;20468;-71
2023/05/31 01:01:32;;;;;;;9.45;6.72;;;;;;;10.79;84.39;102500.34;4917177;29;20425;-70
2023/05/31 01:03:58;;;;;;;10.80;6.70;;;;;;;10.79;84.42;102502.06;4910694;29;20036;-71
2023/05/31 01:06:24;;;;;;;7.95;7.15;;;;;;;10.78;84.81;102492.47;4916706;29;20036;-71
2023/05/31 01:08:54;;;;;;;9.57;6.82;;;;;;;10.79;84.63;102502.06;4903666;29;20127;-71
2023/05/31 01:11:29;;;;;;;10.55;7.03;;;;;;;10.78;84.69;102501.19;4914790;29;20125;-71
2023/05/31 01:13:58;;;;;;;9.88;7.13;;;;;;;10.74;84.72;102504.63;4933185;29;20046;-71
2023/05/31 01:16:33;;;;;;;9.27;6.82;;;;;;;10.73;85.21;102501.13;4928685;29;20036;-71
2023/05/31 01:19:03;;;;;;;9.90;7.65;;;;;;;10.68;84.97;102507.19;4910466;29;20031;-75
2023/05/31 01:22:14;;;;;;;8.38;6.35;;;;;;;10.68;84.84;102500.19;4926749;29;20364;-75
2023/05/31 01:25:20;;;;;;;9.05;7.05;;;;;;;10.66;84.78;102490.53;4904702;29;20040;-75
2023/05/31 01:27:46;;;;;;;8.43;6.93;;;;;;;10.62;85.18;102496.59;4914600;29;20116;-75
2023/05/31 01:30:16;;;;;;;9.50;7.80;;;;;;;10.61;85.63;102503.56;4910449;29;20019;-75
2023/05/31 01:32:42;;;;;;;9.07;7.43;;;;;;;10.59;86.06;102494.81;4916607;29;20059;-75
2023/05/31 01:35:08;;;;;;;8.52;6.78;;;;;;;10.55;86.14;102498.25;4916561;29;20488;-75
2023/05/31 01:37:34;;;;;;;9.60;6.90;;;;;;;10.56;86.64;102500.03;4902772;29;20039;-75
2023/05/31 01:39:59;;;;;;;9.85;7.28;;;;;;;10.54;86.95;102493.84;4920040;29;20028;-75
2023/05/31 01:42:27;;;;;;;9.90;7.60;;;;;;;10.54;86.02;102493.84;4897016;29;20153;-71
2023/05/31 01:44:53;;;;;;;8.60;6.90;;;;;;;10.51;86.50;102496.44;4899977;29;20115;-71
2023/05/31 01:47:20;;;;;;;11.10;8.25;;;;;;;10.49;87.03;102498.16;4898419;29;20027;-71
2023/05/31 01:49:47;;;;;;;9.60;8.00;;;;;;;10.44;87.23;102494.59;4903070;29;20047;-71
2023/05/31 01:52:15;;;;;;;10.40;7.90;;;;;;;10.39;87.25;102492.75;4898329;29;20033;-70
2023/05/31 01:54:40;;;;;;;11.82;7.53;;;;;;;10.39;86.98;102486.66;4925363;29;20447;-71
2023/05/31 01:57:07;;;;;;;11.00;8.48;;;;;;;10.36;87.50;102478.75;4902993;29;20040;-71
2023/05/31 01:59:35;;;;;;;9.98;7.78;;;;;;;10.37;87.09;102473.53;4933404;29;20040;-71
2023/05/31 02:02:02;;;;;;;9.15;8.00;;;;;;;10.31;87.89;102478.63;4934362;29;20479;-71
2023/05/31 02:04:28;;;;;;;10.77;7.57;;;;;;;10.31;87.75;102475.13;4933530;29;20028;-70
2023/05/31 02:06:53;;;;;;;10.15;7.93;;;;;;;10.22;88.23;102478.50;4933728;29;20050;-71
2023/05/31 02:09:21;;;;;;;9.52;8.27;;;;;;;10.27;88.48;102476.84;4918819;29;20098;-70
2023/05/31 02:11:46;;;;;;;10.52;8.13;;;;;;;10.28;88.68;102468.09;4898001;29;20400;-71
2023/05/31 02:14:12;;;;;;;9.70;7.97;;;;;;;10.29;88.36;102480.34;4909999;29;20039;-71
2023/05/31 02:16:37;;;;;;;11.15;8.52;;;;;;;10.27;88.65;102474.22;4911843;29;20535;-71
2023/05/31 02:19:03;;;;;;;11.18;8.65;;;;;;;10.23;88.85;102473.28;4928162;29;20432;-71
2023/05/31 02:21:29;;;;;;;11.45;8.90;;;;;;;10.18;89.07;102477.53;4927520;29;20385;-75
2023/05/31 02:23:54;;;;;;;9.65;8.10;;;;;;;10.20;89.24;102475.84;4915121;29;20028;-74
2023/05/31 02:26:23;;;;;;;9.95;8.43;;;;;;;10.18;89.03;102472.31;4911057;29;20034;-75
2023/05/31 02:28:49;;;;;;;10.65;8.98;;;;;;;10.21;89.01;102466.25;4917446;29;20035;-74
2023/05/31 02:31:14;;;;;;;12.43;9.20;;;;;;;10.17;89.79;102465.31;4918209;29;20513;-74
2023/05/31 02:33:41;;;;;;;10.13;8.43;;;;;;;10.16;89.34;102476.66;4927926;29;20028;-75
2023/05/31 02:36:08;;;;;;;12.48;9.00;;;;;;;10.17;89.31;102480.13;4933535;29;20436;-75
2023/05/31 02:38:33;;;;;;;10.95;9.18;;;;;;;10.14;89.61;102465.28;4893176;29;20059;-75
2023/05/31 02:40:59;;;;;;;11.07;8.70;;;;;;;10.12;89.30;102466.09;4897282;29;20070;-75
2023/05/31 02:43:24;;;;;;;14.93;9.60;;;;;;;10.15;89.58;102474.00;4912893;29;20091;-75
2023/05/31 02:45:51;;;;;;;12.10;9.00;;;;;;;10.18;89.15;102474.06;4893857;29;20091;-75
2023/05/31 02:48:17;;;;;;;15.48;9.63;;;;;;;10.16;89.40;102462.69;4913751;29;20070;-75
2023/05/31 02:53:16;;;;;;;12.40;10.00;;;;;;;10.13;90.04;102465.22;5048659;23;20059;-71
2023/05/31 02:55:44;;;;;;;11.52;9.85;;;;;;;10.04;90.16;102476.44;5118085;23;20155;-70
2023/05/31 02:58:10;;;;;;;11.80;9.25;;;;;;;10.08;89.88;102474.78;5044884;23;20026;-70
2023/05/31 03:05:46;;;;;;;11.85;9.85;;;;;;;10.03;90.29;102465.09;3335040;23;20512;-72
2023/05/31 03:21:07;;;;;;;11.88;10.18;;;;;;;9.95;91.28;102478.91;3637152;23;20025;-73
2023/05/31 03:28:43;;;;;;;13.70;11.07;;;;;;;9.89;91.27;102477.94;5270020;23;20028;-74
2023/05/31 03:49:35;;;;;;;14.98;11.40;;;;;;;9.88;91.39;102472.69;4210421;27;20070;-70
2023/05/31 03:52:01;;;;;;;15.50;11.70;;;;;;;9.86;91.08;102469.16;4912223;29;20035;-70
2023/05/31 03:54:26;;;;;;;15.15;11.38;;;;;;;9.80;91.67;102469.06;4887190;29;20043;-71
2023/05/31 03:56:51;;;;;;;15.35;11.07;;;;;;;9.81;91.56;102461.25;4883532;29;20187;-70
2023/05/31 03:59:18;;;;;;;17.20;11.65;;;;;;;9.82;91.57;102462.13;4898589;29;20063;-74
2023/05/31 04:01:43;;;;;;;17.60;11.88;;;;;;;9.94;91.88;102469.28;4881300;29;20032;-75
2023/05/31 04:04:09;;;;;;;16.40;11.98;;;;;;;10.00;92.02;102472.91;4898698;29;20047;-75
2023/05/31 04:06:35;;;;;;;15.48;11.85;;;;;;;10.06;91.89;102466.88;4867315;29;20028;-74
2023/05/31 04:09:00;;;;;;;14.75;12.10;;;;;;;10.13;91.73;102473.09;4912537;29;20047;-74
2023/05/31 04:11:26;;;;;;;15.73;12.73;;;;;;;10.22;91.39;102463.63;4892237;29;20041;-75
2023/05/31 04:13:51;;;;;;;13.85;11.35;;;;;;;10.32;91.32;102459.44;4881238;29;20035;-75
2023/05/31 04:16:17;;;;;;;16.52;11.68;;;;;;;10.35;91.57;102461.25;4894136;29;20040;-70
2023/05/31 04:19:01;;;;;;;15.50;11.93;;;;;;;10.44;91.23;102466.63;4912544;29;20528;-70
2023/05/31 04:21:26;;;;;;;16.83;11.65;;;;;;;10.46;91.18;102466.63;4912787;29;20408;-70
2023/05/31 04:23:52;;;;;;;16.10;12.75;;;;;;;10.63;90.66;102469.50;4896301;29;20051;-71
2023/05/31 04:26:28;;;;;;;16.35;13.55;;;;;;;10.74;90.39;102470.53;4892617;29;20048;-70
2023/05/31 04:28:56;;;;;;;14.88;11.80;;;;;;;10.82;89.74;102466.28;4907271;29;20060;-71
2023/05/31 04:31:25;;;;;;;16.48;12.40;;;;;;;10.92;89.54;102472.53;4894763;29;20472;-71
2023/05/31 04:33:53;;;;;;;16.10;13.18;;;;;;;11.06;88.94;102475.31;4898401;29;20032;-75
2023/05/31 04:36:20;;;;;;;16.92;13.15;;;;;;;11.16;88.98;102469.34;4907999;29;20457;-70
2023/05/31 04:38:47;;;;;;;15.38;12.55;;;;;;;11.21;88.63;102465.03;4908197;29;20373;-71
2023/05/31 04:41:14;;;;;;;16.50;12.65;;;;;;;11.34;88.28;102471.28;4911894;29;20364;-71
2023/05/31 04:43:39;;;;;;;18.23;12.93;;;;;;;11.43;87.82;102471.41;4896625;29;20404;-71
2023/05/31 04:46:05;;;;;;;20.33;13.80;;;;;;;11.48;87.03;102474.06;4894728;29;20028;-70
2023/05/31 04:48:31;;;;;;;18.48;12.85;;;;;;;11.66;87.37;102468.13;4898144;29;20419;-70
2023/05/31 04:50:58;;;;;;;18.00;12.93;;;;;;;11.79;87.23;102472.63;4898175;29;20036;-71
2023/05/31 04:53:24;;;;;;;20.52;13.45;;;;;;;11.94;85.50;102473.69;4867949;29;20028;-71
2023/05/31 04:55:51;;;;;;;17.98;13.35;;;;;;;12.05;85.63;102477.28;4911039;29;20499;-71
2023/05/31 04:58:19;;;;;;;18.35;12.93;;;;;;;12.16;85.04;102476.47;4862377;29;20038;-75
2023/05/31 05:00:45;;;;;;;16.80;12.75;;;;;;;12.33;84.60;102472.22;4893405;29;20036;-75
2023/05/31 05:03:11;;;;;;;15.38;12.77;;;;;;;12.40;84.31;102467.91;4878565;29;20035;-75
2023/05/31 05:05:37;;;;;;;19.20;13.15;;;;;;;12.53;83.14;102476.72;4899694;29;20116;-72
2023/05/31 05:08:03;;;;;;;18.02;13.07;;;;;;;12.63;82.19;102481.19;4861111;29;20477;-70
2023/05/31 05:10:29;;;;;;;21.08;13.32;;;;;;;12.73;82.43;102474.19;4903577;29;20039;-70
2023/05/31 05:12:54;;;;;;;20.17;12.70;;;;;;;12.88;81.66;102474.28;4882080;29;20041;-71
2023/05/31 05:15:19;;;;;;;18.30;12.07;;;;;;;13.03;81.88;102475.22;4885452;29;20446;-71
2023/05/31 05:17:45;;;;;;;19.05;12.50;;;;;;;13.25;81.01;102474.44;4902065;29;20135;-71
2023/05/31 05:20:12;;;;;;;19.98;12.70;;;;;;;13.41;80.09;102477.16;4892872;29;20122;-71
2023/05/31 05:22:38;;;;;;;19.77;13.52;;;;;;;13.59;79.91;102495.63;4887372;29;20096;-71
2023/05/31 05:25:04;;;;;;;16.08;13.02;;;;;;;13.75;78.61;102480.72;4901796;29;20032;-71
2023/05/31 05:27:29;;;;;;;17.48;12.10;;;;;;;13.86;79.25;102481.63;4903035;29;20388;-69
2023/05/31 05:29:55;;;;;;;17.30;13.60;;;;;;;14.10;77.62;102489.53;4882555;29;20044;-69
2023/05/31 05:32:20;;;;;;;17.55;12.45;;;;;;;14.20;77.29;102489.53;4867850;29;20033;-69
2023/05/31 05:34:46;;;;;;;16.42;12.25;;;;;;;14.16;75.61;102485.13;4899104;29;20044;-69
2023/05/31 05:37:11;;;;;;;18.23;12.70;;;;;;;14.42;76.62;102481.59;4890991;29;20123;-70
2023/05/31 05:39:37;;;;;;;17.10;12.65;;;;;;;14.68;75.20;102493.88;4896881;29;20028;-69
2023/05/31 05:42:02;;;;;;;17.65;12.38;;;;;;;14.76;73.88;102492.09;4891394;29;20030;-70
2023/05/31 05:44:28;;;;;;;15.32;13.07;;;;;;;14.98;73.69;102492.03;4907199;29;20032;-70
2023/05/31 05:46:56;;;;;;;16.85;12.60;;;;;;;15.15;72.82;102495.47;4883806;29;20064;-73
2023/05/31 05:49:21;;;;;;;13.73;10.98;;;;;;;15.21;71.27;102492.81;4900133;29;20100;-73
2023/05/31 05:51:47;;;;;;;23.02;13.00;;;;;;;15.04;71.14;102494.63;4893420;29;20063;-72
2023/05/31 05:54:12;;;;;;;14.60;11.70;;;;;;;15.30;70.80;102496.28;4900854;29;20036;-73
2023/05/31 05:56:37;;;;;;;14.63;11.40;;;;;;;15.24;69.40;102495.44;4884929;29;20040;-73
2023/05/31 05:59:03;;;;;;;16.10;11.88;;;;;;;15.31;70.56;102479.56;4882110;29;20033;-73
2023/05/31 06:01:28;;;;;;;17.45;11.95;;;;;;;15.50;71.41;102481.22;4909393;29;20096;-73
2023/05/31 06:03:55;;;;;;;19.63;12.63;;;;;;;15.67;70.22;102483.72;4904116;29;20107;-74
2023/05/31 06:06:20;;;;;;;19.55;12.23;;;;;;;15.83;68.36;102489.84;4906761;29;20040;-73
2023/05/31 06:08:46;;;;;;;17.58;11.90;;;;;;;15.78;67.99;102496.88;4907729;29;20043;-74
2023/05/31 06:11:13;;;;;;;20.17;12.55;;;;;;;16.12;69.97;102491.38;4909710;29;20125;-73
2023/05/31 06:13:38;;;;;;;17.75;12.70;;;;;;;16.35;68.52;102498.19;4890227;29;20067;-73
2023/05/31 06:16:05;;;;;;;18.42;11.75;;;;;;;16.50;66.72;102495.41;4904541;29;20064;-74
2023/05/31 06:18:31;;;;;;;16.00;12.20;;;;;;;16.63;65.56;102488.22;4882672;29;20032;-74
2023/05/31 06:20:56;;;;;;;18.35;11.70;;;;;;;16.63;65.56;102489.09;4903191;29;20032;-73
2023/05/31 06:23:22;;;;;;;17.95;11.18;;;;;;;16.56;64.21;102497.97;4886324;29;20044;-75
2023/05/31 06:25:47;;;;;;;19.42;12.55;;;;;;;16.60;65.35;102489.13;4887171;29;20024;-73
2023/05/31 06:28:13;;;;;;;15.15;11.10;;;;;;;16.68;66.14;102490.81;4900043;29;20032;-73
2023/05/31 06:30:38;;;;;;;17.63;11.57;;;;;;;16.94;65.91;102498.50;4902678;29;20040;-73
2023/05/31 06:33:04;;;;;;;16.45;11.20;;;;;;;17.23;65.34;102498.13;4911005;29;20501;-73
2023/05/31 06:35:29;;;;;;;15.25;11.32;;;;;;;17.30;62.69;102502.44;4903810;29;20077;-73
2023/05/31 06:37:56;;;;;;;15.75;11.05;;;;;;;17.43;61.41;102510.25;4892422;29;20059;-73
2023/05/31 06:40:22;;;;;;;18.40;10.77;;;;;;;17.48;63.33;102503.09;4891784;29;20039;-73
2023/05/31 06:42:47;;;;;;;15.43;10.63;;;;;;;17.70;61.71;102506.31;4908369;29;20028;-73
2023/05/31 06:45:13;;;;;;;15.88;10.98;;;;;;;17.55;61.96;102504.75;4889945;29;20087;-74
2023/05/31 06:47:38;;;;;;;20.38;11.63;;;;;;;17.79;63.12;102500.00;4880013;29;20485;-76
2023/05/31 06:50:04;;;;;;;15.32;11.27;;;;;;;17.87;62.19;102514.03;4901259;29;20100;-74
2023/05/31 06:52:29;;;;;;;15.63;10.93;;;;;;;17.96;62.45;102511.25;4868242;29;20040;-73
2023/05/31 06:54:55;;;;;;;17.70;11.35;;;;;;;18.10;61.25;102504.81;4892050;29;20453;-74
2023/05/31 06:57:20;;;;;;;16.02;10.82;;;;;;;18.25;61.71;102503.69;4901737;29;20492;-73
2023/05/31 06:59:46;;;;;;;18.45;11.23;;;;;;;18.15;60.52;102497.66;4902131;29;20036;-73
2023/05/31 07:02:13;;;;;;;16.63;10.65;;;;;;;18.26;60.14;102505.44;4903240;29;20470;-73
2023/05/31 07:04:39;;;;;;;16.05;10.88;;;;;;;18.25;59.75;102507.22;4884379;29;20039;-73
2023/05/31 07:07:05;;;;;;;18.30;11.55;;;;;;;18.33;61.05;102504.41;4866948;29;20032;-70
2023/05/31 07:09:30;;;;;;;16.13;10.80;;;;;;;18.27;59.50;102507.19;4871345;29;20059;-70
2023/05/31 07:11:56;;;;;;;16.80;12.05;;;;;;;18.16;60.80;102502.09;4905484;29;20036;-70
2023/05/31 07:14:22;;;;;;;14.85;11.02;;;;;;;18.23;60.59;102509.03;4913292;29;20059;-70
2023/05/31 07:16:50;;;;;;;14.35;10.38;;;;;;;18.14;59.00;102498.56;4902416;29;20044;-70
2023/05/31 07:19:15;;;;;;;17.70;11.82;;;;;;;18.17;59.69;102502.06;4905480;29;20037;-75
2023/05/31 07:21:40;;;;;;;17.85;10.75;;;;;;;18.08;59.62;102496.88;4888313;29;20076;-70
2023/05/31 07:24:06;;;;;;;21.80;11.10;;;;;;;18.26;61.15;102500.13;4907957;29;20393;-73
2023/05/31 07:26:31;;;;;;;15.73;11.30;;;;;;;18.13;60.37;102499.44;4902360;29;20516;-74
2023/05/31 07:28:58;;;;;;;17.35;11.70;;;;;;;18.23;59.86;102494.88;4884107;29;20032;-73
2023/05/31 07:31:23;;;;;;;20.52;11.38;;;;;;;18.16;59.64;102487.03;4903875;29;20051;-73
2023/05/31 07:33:49;;;;;;;19.40;11.35;;;;;;;18.41;60.39;102488.38;4909038;29;20417;-73
2023/05/31 07:36:15;;;;;;;17.88;11.18;;;;;;;18.08;57.83;102491.59;4900017;29;20380;-70
2023/05/31 07:38:41;;;;;;;19.00;11.32;;;;;;;18.06;61.38;102482.78;4885052;29;21048;-73
2023/05/31 07:41:06;;;;;;;18.65;10.63;;;;;;;18.21;60.06;102476.31;4889081;29;20036;-73
2023/05/31 07:43:32;;;;;;;15.82;10.93;;;;;;;18.10;60.95;102475.63;4908537;29;20032;-73
2023/05/31 07:45:58;;;;;;;15.68;11.68;;;;;;;18.24;61.25;102470.09;4887683;29;20107;-74
2023/05/31 07:48:24;;;;;;;16.88;10.82;;;;;;;18.43;60.63;102467.97;4890235;29;20136;-73
2023/05/31 07:50:50;;;;;;;15.10;10.50;;;;;;;18.40;58.87;102479.50;4895356;29;20496;-73
2023/05/31 07:53:18;;;;;;;18.75;12.18;;;;;;;18.20;58.42;102471.06;4905019;29;20029;-70
2023/05/31 07:55:44;;;;;;;18.58;10.63;;;;;;;18.20;60.83;102469.25;4909664;29;20172;-70
2023/05/31 07:58:12;;;;;;;17.17;11.38;;;;;;;18.17;61.29;102464.00;4885642;29;20054;-70
2023/05/31 08:00:40;;;;;;;16.52;11.48;;;;;;;18.35;61.66;102474.31;4890853;29;20643;-72
2023/05/31 08:03:06;;;;;;;20.27;11.10;;;;;;;18.38;60.34;102470.72;4894041;29;20032;-69
2023/05/31 08:05:32;;;;;;;15.68;11.05;;;;;;;18.46;60.52;102473.22;4877165;29;20084;-70
2023/05/31 08:07:59;;;;;;;16.40;11.48;;;;;;;18.62;61.15;102471.13;4897314;29;20036;-70
2023/05/31 08:10:24;;;;;;;15.52;10.02;;;;;;;18.64;58.28;102472.00;4910604;29;20029;-71
2023/05/31 08:12:50;;;;;;;21.63;11.02;;;;;;;18.65;59.86;102466.66;4895654;29;20112;-70
2023/05/31 08:15:16;;;;;;;17.63;11.52;;;;;;;18.58;59.71;102466.81;4895510;29;20460;-71
2023/05/31 08:17:43;;;;;;;17.65;10.77;;;;;;;18.65;59.61;102466.66;4912245;29;20036;-69
2023/05/31 08:20:15;;;;;;;17.25;10.88;;;;;;;18.52;58.74;102460.72;4896140;29;20496;-69
2023/05/31 08:22:47;;;;;;;16.67;10.63;;;;;;;18.59;59.63;102456.16;4876653;29;20085;-70
2023/05/31 08:25:15;;;;;;;18.95;10.57;;;;;;;18.68;61.35;102448.00;4895869;29;20056;-70
2023/05/31 08:27:40;;;;;;;16.70;11.30;;;;;;;18.73;60.10;102458.53;4895778;29;20032;-70
2023/05/31 08:30:11;;;;;;;14.45;10.00;;;;;;;18.79;59.00;102453.13;4865589;29;20092;-70
2023/05/31 08:32:37;;;;;;;18.35;10.18;;;;;;;18.93;59.45;102450.19;4879534;29;20048;-70
2023/05/31 08:35:06;;;;;;;23.38;11.35;;;;;;;19.08;58.99;102450.75;4896340;29;20034;-70
2023/05/31 08:37:32;;;;;;;15.18;10.05;;;;;;;18.82;57.45;102455.69;4880538;29;20029;-70
2023/05/31 08:39:57;;;;;;;19.90;10.55;;;;;;;18.92;57.99;102456.44;4865256;29;20043;-70
2023/05/31 08:42:27;;;;;;;19.65;10.57;;;;;;;18.98;57.08;102452.75;4911126;29;20119;-70
2023/05/31 08:44:53;;;;;;;16.73;9.27;;;;;;;19.01;56.70;102458.88;4911780;29;20032;-71
2023/05/31 08:47:28;;;;;;;15.77;10.07;;;;;;;19.10;58.48;102455.13;4895543;29;20044;-70
2023/05/31 08:49:54;;;;;;;28.55;10.48;;;;;;;19.14;57.14;102456.81;4910689;29;20467;-71
2023/05/31 08:52:21;;;;;;;16.55;9.95;;;;;;;19.22;58.71;102451.31;4895413;29;20051;-70
2023/05/31 08:54:47;;;;;;;17.23;9.68;;;;;;;19.26;56.16;102452.16;4880449;29;20039;-70
2023/05/31 08:57:13;;;;;;;15.93;9.55;;;;;;;19.21;55.81;102455.78;4895865;29;20074;-72
2023/05/31 08:59:39;;;;;;;19.33;10.10;;;;;;;19.30;56.14;102444.06;4911221;29;20064;-71
2023/05/31 09:02:08;;;;;;;14.55;8.65;;;;;;;19.32;56.18;102436.94;4881052;29;20193;-71
2023/05/31 09:04:34;;;;;;;16.38;8.85;;;;;;;19.41;57.31;102441.16;4898899;29;20063;-70
2023/05/31 09:07:01;;;;;;;16.30;9.05;;;;;;;19.51;57.83;102432.06;4914774;29;20477;-70
2023/05/31 09:09:26;;;;;;;12.02;9.25;;;;;;;19.54;56.18;102429.31;4899313;29;20067;-70
2023/05/31 09:11:52;;;;;;;18.60;9.50;;;;;;;19.47;54.56;102437.50;4899116;29;20497;-71
2023/05/31 09:14:17;;;;;;;15.93;9.50;;;;;;;19.64;54.14;102437.97;4883635;29;20080;-70
2023/05/31 09:16:44;;;;;;;15.88;8.50;;;;;;;19.76;56.10;102430.59;4868039;29;20047;-70
2023/05/31 09:19:09;;;;;;;15.63;9.05;;;;;;;19.80;55.41;102421.66;4883880;29;20063;-70
2023/05/31 09:21:53;;;;;;;12.35;6.72;;;;;;;19.90;54.91;102420.50;4866824;29;20130;-69
2023/05/31 09:24:19;;;;;;;13.27;8.35;;;;;;;19.98;53.64;102429.13;4868368;29;20132;-71
2023/05/31 09:26:52;;;;;;;11.57;7.60;;;;;;;20.01;54.71;102426.41;4868199;29;20036;-70
2023/05/31 09:29:19;;;;;;;15.50;8.15;;;;;;;20.13;53.96;102426.97;4898776;29;20100;-71
2023/05/31 09:31:45;;;;;;;12.02;7.65;;;;;;;20.03;53.90;102416.59;4867990;29;20048;-70
2023/05/31 09:34:34;;;;;;;14.07;8.30;;;;;;;20.14;53.20;102415.44;4883018;29;20393;-71
2023/05/31 09:36:59;;;;;;;16.92;8.45;;;;;;;20.12;52.73;102417.28;4882807;29;20040;-70
2023/05/31 09:39:28;;;;;;;14.30;7.13;;;;;;;20.30;53.77;102421.22;4882683;29;20087;-71
2023/05/31 09:41:56;;;;;;;14.65;8.27;;;;;;;20.31;52.27;102417.63;4914198;29;20037;-71
2023/05/31 09:44:26;;;;;;;12.02;7.53;;;;;;;20.38;52.09;102403.25;4914342;29;20115;-71
2023/05/31 09:46:52;;;;;;;12.60;7.43;;;;;;;20.43;52.77;102410.19;4898821;29;20041;-71
2023/05/31 09:49:19;;;;;;;13.38;7.55;;;;;;;20.43;52.71;102412.84;4908667;29;20056;-71
2023/05/31 09:51:54;;;;;;;12.90;7.47;;;;;;;20.39;52.66;102400.53;4917037;29;20094;-71
2023/05/31 09:54:25;;;;;;;15.27;7.55;;;;;;;20.34;51.60;102402.47;4916167;29;20036;-70
2023/05/31 09:56:50;;;;;;;;;;;;;;;20.50;53.40;102402.91;4871905;29;20086;-71
2023/05/31 09:59:16;;;;;;;14.65;6.72;;;;;;;20.62;53.78;102399.00;4901324;29;20368;-70
2023/05/31 10:01:42;;;;;;;14.27;7.13;;;;;;;20.63;49.75;102403.41;4901692;29;20386;-71
2023/05/31 10:04:07;;;;;;;12.77;6.45;;;;;;;20.66;49.42;102392.69;4886208;29;20039;-70
2023/05/31 10:06:35;;;;;;;12.18;7.00;;;;;;;20.80;50.82;102399.41;4901106;29;20087;-71
2023/05/31 10:09:05;;;;;;;14.85;7.50;;;;;;;20.72;50.56;102403.16;4884976;29;20044;-71
2023/05/31 10:11:35;;;;;;;;;;;;;;;20.86;51.00;102399.22;4901370;29;20029;-71
2023/05/31 10:14:03;;;;;;;12.52;6.50;;;;;;;20.93;50.06;102400.75;4915844;29;20319;-71
2023/05/31 10:16:40;;;;;;;13.95;6.97;;;;;;;20.96;49.97;102399.81;4917038;29;20035;-71
2023/05/31 10:19:09;;;;;;;13.68;6.20;;;;;;;20.97;49.75;102397.09;4901428;29;20028;-74
2023/05/31 10:21:41;;;;;;;12.70;6.30;;;;;;;20.95;47.53;102390.94;4883643;29;20047;-73
2023/05/31 10:24:17;;;;;;;11.85;6.30;;;;;;;20.93;48.41;102390.09;4901352;29;20032;-74
2023/05/31 10:27:00;;;;;;;7.93;4.75;;;;;;;21.08;49.26;102389.63;4915540;29;20040;-74
2023/05/31 10:29:39;;;;;;;12.50;4.43;;;;;;;21.23;49.75;102382.97;4915333;29;20028;-74
2023/05/31 10:32:19;;;;;;;10.13;6.05;;;;;;;21.31;49.24;102376.50;4916114;29;20035;-75
2023/05/31 10:34:46;;;;;;;12.80;5.82;;;;;;;21.43;51.17;102368.97;4917959;29;20028;-74
2023/05/31 10:37:13;;;;;;;10.25;5.55;;;;;;;21.41;47.81;102376.16;4916417;29;20032;-74
2023/05/31 10:39:58;;;;;;;10.93;5.25;;;;;;;21.46;48.67;102362.66;4885551;29;20071;-74
2023/05/31 10:42:29;;;;;;;11.73;5.45;;;;;;;21.48;46.51;102349.25;4931837;29;20111;-73
2023/05/31 10:45:22;;;;;;;8.70;3.88;;;;;;;21.46;45.08;102366.22;4918132;29;20032;-74
2023/05/31 10:48:14;;;;;;;10.93;4.43;;;;;;;21.56;46.59;102353.44;4900865;29;20392;-74
2023/05/31 10:50:57;;;;;;;10.88;4.53;;;;;;;21.67;44.99;102349.56;4872069;29;20052;-71
2023/05/31 10:53:27;;;;;;;9.48;4.15;;;;;;;21.70;44.34;102350.31;4916393;29;20036;-74
2023/05/31 10:56:02;;;;;;;9.15;4.88;;;;;;;21.71;45.47;102346.72;4886104;29;20040;-71
2023/05/31 10:58:36;;;;;;;8.77;4.03;;;;;;;21.71;47.06;102352.06;4900255;29;20043;-72
2023/05/31 11:01:10;;;;;;;10.57;4.40;;;;;;;21.73;44.41;102344.00;4900476;29;20469;-72
2023/05/31 11:03:43;;;;;;;10.95;3.90;;;;;;;21.63;44.58;102333.63;4899799;29;20382;-71
2023/05/31 11:06:11;;;;;;;7.45;4.15;;;;;;;21.82;48.07;102332.13;4882341;29;20028;-71
2023/05/31 11:08:37;;;;;;;8.27;3.70;;;;;;;21.81;46.41;102336.59;4895080;29;20115;-71
2023/05/31 11:11:27;;;;;;;11.60;4.32;;;;;;;21.90;44.68;102340.75;4897979;29;20541;-71
2023/05/31 11:14:00;;;;;;;11.50;5.03;;;;;;;22.03;45.74;102341.19;4884692;29;20122;-71
2023/05/31 11:16:53;;;;;;;12.35;3.80;;;;;;;21.99;44.00;102340.41;4869172;29;20031;-75
2023/05/31 11:19:30;;;;;;;9.50;4.00;;;;;;;22.07;45.44;102342.81;4899975;29;20064;-74
2023/05/31 11:21:59;;;;;;;11.15;4.80;;;;;;;22.00;42.94;102336.81;4899476;29;20028;-71
2023/05/31 11:24:47;;;;;;;17.17;4.57;;;;;;;21.91;43.13;102332.69;4914856;29;20036;-74
2023/05/31 11:27:13;;;;;;;10.10;4.90;;;;;;;22.06;43.91;102333.91;4899840;29;20055;-71
2023/05/31 11:29:48;;;;;;;11.23;4.85;;;;;;;22.25;45.16;102335.91;4905945;29;20074;-73
2023/05/31 11:32:18;;;;;;;8.95;4.60;;;;;;;22.14;44.42;102325.66;4915669;29;20032;-74
2023/05/31 11:34:57;;;;;;;10.57;5.30;;;;;;;22.20;44.89;102324.53;4884231;29;20484;-74
2023/05/31 11:37:26;;;;;;;13.90;5.10;;;;;;;22.17;43.32;102336.19;4899041;29;20023;-72
2023/05/31 11:39:54;;;;;;;9.50;4.45;;;;;;;22.34;45.17;102330.28;4910936;29;20110;-71
2023/05/31 11:42:20;;;;;;;12.75;4.88;;;;;;;22.51;44.59;102331.41;4899086;29;20016;-71
2023/05/31 11:44:46;;;;;;;9.00;3.83;;;;;;;22.55;44.67;102322.34;4884512;29;20083;-71
2023/05/31 11:47:26;;;;;;;11.10;4.22;;;;;;;22.66;45.27;102317.47;4899782;29;20036;-71
2023/05/31 11:49:51;;;;;;;9.27;4.10;;;;;;;22.78;43.44;102313.44;4915522;29;20437;-72
2023/05/31 11:52:21;;;;;;;11.82;4.20;;;;;;;22.90;43.75;102325.41;4915167;29;20083;-72
2023/05/31 11:54:48;;;;;;;11.35;4.13;;;;;;;22.97;42.90;102313.53;4915485;29;20087;-72
2023/05/31 11:57:20;;;;;;;11.05;4.15;;;;;;;23.06;44.99;102310.50;4898353;29;20028;-71
2023/05/31 11:59:45;;;;;;;12.02;4.22;;;;;;;23.06;42.61;102313.19;4921460;29;20036;-72
2023/05/31 12:02:12;;;;;;;12.77;3.90;;;;;;;23.04;44.24;102309.69;4884217;29;20397;-73
2023/05/31 12:04:42;;;;;;;9.98;4.00;;;;;;;23.11;42.67;102284.47;4899750;29;20039;-71